Sti Hammersmith — V7DP3 — position and weather

sailwx.info

Track history (hours):
 
Tides and Currents Weather Stations Pressure Air Temp Water Temp Dewpoint Dewpoint Depression Visibility Wind Speed Wind Dir Waves Ship Positions

Sti Hammersmith

Last reported at 2017-Sep-18 23:22 UTC. Time now 2017-Sep-24 10:17 UTC.
Position N 40°22' W 073°03'.

Length 184 m; draft 9 m.

Type: Tanker. MMSI: 538005410.

Date/timePositionNaut miles runAvg speedWind from/ knotsBaromVisibWave heightAir tempDewpointWater temp
2017-Sep-18 23:22N 40°22' W 073°03'411.1
2017-Sep-18 23:00N 40°23' W 073°08'611.1
2017-Sep-18 22:30N 40°23' W 073°15'510.9
2017-Sep-18 22:00N 40°23' W 073°23'1010.9
2017-Sep-18 21:03N 40°24' W 073°36'1 7.6
2017-Sep-18 20:55N 40°24' W 073°37'0 0.0
2017-Sep-17 11:15N 40°24' W 073°38'0 0.0
2017-Sep-17 09:02N 40°24' W 073°38'0 0.0
2017-Sep-17 07:35N 40°24' W 073°38'0 0.0
2017-Sep-17 07:30N 40°24' W 073°38'0 0.0
2017-Sep-17 07:00N 40°24' W 073°38'0 0.0
2017-Sep-17 06:27N 40°24' W 073°38'0 0.0
2017-Sep-17 04:45N 40°24' W 073°38'0 0.1
2017-Sep-17 04:29N 40°24' W 073°38'0 0.1
2017-Sep-17 04:00N 40°24' W 073°38'0 0.1
2017-Sep-17 03:30N 40°24' W 073°37'0 0.1
2017-Sep-17 02:53N 40°24' W 073°37'0 0.0
2017-Sep-17 02:30N 40°24' W 073°37'0 0.0
2017-Sep-17 01:59N 40°24' W 073°37'0 0.0
2017-Sep-17 01:29N 40°24' W 073°37'0 0.0
2017-Sep-16 09:57N 40°24' W 073°37'5 8.9
2017-Sep-16 09:26N 40°25' W 073°43'711.0
2017-Sep-16 08:49N 40°28' W 073°51'413.0
2017-Sep-16 08:30N 40°30' W 073°56'611.1
2017-Sep-16 08:00N 40°33' W 074°02'510.5
2017-Sep-16 07:30N 40°38' W 074°03'0 0.8
2017-Sep-16 07:00N 40°39' W 074°03'0 0.0
2017-Sep-16 06:30N 40°39' W 074°03'0 0.1
2017-Sep-16 06:00N 40°39' W 074°03'0 0.2
2017-Sep-16 05:30N 40°39' W 074°03'0 0.2
2017-Sep-16 05:00N 40°39' W 074°03'0 0.0
2017-Sep-16 04:30N 40°39' W 074°03'0 0.0
2017-Sep-16 04:00N 40°39' W 074°03'0 0.0
2017-Sep-16 03:30N 40°39' W 074°03'0 0.0
2017-Sep-16 03:00N 40°39' W 074°03'0 0.0
2017-Sep-16 02:30N 40°39' W 074°03'0 0.1
2017-Sep-16 02:00N 40°39' W 074°03'1 1.8
2017-Sep-16 01:30N 40°39' W 074°04'4 7.3
2017-Sep-16 01:00N 40°38' W 074°09'3 5.8
2017-Sep-16 00:30N 40°37' W 074°12'1 0.0
2017-Sep-14 08:48N 40°36' W 074°12'0 0.3
2017-Sep-14 08:30N 40°36' W 074°12'2 3.2
2017-Sep-14 08:00N 40°34' W 074°13'1 2.9
2017-Sep-14 07:30N 40°33' W 074°14'1 2.3
2017-Sep-14 06:58N 40°34' W 074°13'2 4.4
2017-Sep-14 06:28N 40°36' W 074°12'2 3.9
2017-Sep-14 06:00N 40°38' W 074°12'2 4.7
2017-Sep-14 05:31N 40°39' W 074°09'4 7.1
2017-Sep-14 05:00N 40°39' W 074°05'2 3.1
2017-Sep-14 04:31N 40°38' W 074°03'0 0.0
2017-Sep-14 03:58N 40°38' W 074°03'0 0.2
2017-Sep-14 03:28N 40°38' W 074°03'0 0.3
2017-Sep-14 02:58N 40°38' W 074°03'0 0.1
2017-Sep-14 02:28N 40°38' W 074°03'0 0.0
2017-Sep-14 01:58N 40°38' W 074°03'0 0.0
2017-Sep-14 01:28N 40°38' W 074°03'0 0.0
2017-Sep-14 00:58N 40°38' W 074°03'0 0.0
2017-Sep-14 00:28N 40°38' W 074°03'0 0.0
2017-Sep-13 23:58N 40°38' W 074°03'0 0.0
2017-Sep-13 23:28N 40°38' W 074°03'0 0.0
2017-Sep-13 22:58N 40°38' W 074°03'0 0.0
2017-Sep-13 22:28N 40°38' W 074°03'0 0.0
2017-Sep-13 21:58N 40°38' W 074°03'0 0.0
2017-Sep-13 21:28N 40°38' W 074°03'0 0.3
2017-Sep-13 20:58N 40°38' W 074°03'0 0.3
2017-Sep-13 20:28N 40°38' W 074°03'0 0.0
2017-Sep-13 19:58N 40°38' W 074°03'0 0.0
2017-Sep-13 19:28N 40°38' W 074°03'0 0.0
2017-Sep-13 18:58N 40°38' W 074°03'0 0.1
2017-Sep-13 18:28N 40°38' W 074°03'0 0.0
2017-Sep-13 17:58N 40°38' W 074°03'0 0.1
2017-Sep-13 17:29N 40°38' W 074°03'1 1.9
2017-Sep-13 17:01N 40°37' W 074°03'4 8.7
2017-Sep-13 16:30N 40°33' W 074°02'612.6
2017-Sep-13 16:00N 40°29' W 073°55'611.3
2017-Sep-13 15:30N 40°27' W 073°49'5 9.4
2017-Sep-13 15:00N 40°27' W 073°42'4 7.2
2017-Sep-13 14:30N 40°26' W 073°38'2 3.6
2017-Sep-13 13:57N 40°24' W 073°38'0 0.1
2017-Sep-13 13:29N 40°24' W 073°38'0 0.0
2017-Sep-13 13:00N 40°24' W 073°38'0 0.1
2017-Sep-13 12:30N 40°24' W 073°38'0 0.1
2017-Sep-13 11:56N 40°24' W 073°38'0 0.1
2017-Sep-13 11:30N 40°24' W 073°38'0 0.0
2017-Sep-13 11:00N 40°24' W 073°38'0 0.0
2017-Sep-13 10:30N 40°24' W 073°38'0 0.0
2017-Sep-13 10:00N 40°24' W 073°38'0 0.0
2017-Sep-13 09:27N 40°24' W 073°38'0 0.0
2017-Sep-13 09:00N 40°24' W 073°38'0 0.0
2017-Sep-13 08:30N 40°24' W 073°38'0 0.0
2017-Sep-13 08:00N 40°24' W 073°38'0 0.0
2017-Sep-13 07:30N 40°24' W 073°38'0 0.0
2017-Sep-13 06:59N 40°24' W 073°38'0 0.0
2017-Sep-13 06:30N 40°24' W 073°38'0 0.0
2017-Sep-13 05:57N 40°24' W 073°38'0 0.0
2017-Sep-13 05:29N 40°24' W 073°38'0 0.0
2017-Sep-13 04:51N 40°24' W 073°38'0 0.1
2017-Sep-13 04:29N 40°24' W 073°38'0 0.0
2017-Sep-13 03:59N 40°24' W 073°38'0 0.0
2017-Sep-13 03:26N 40°24' W 073°38'0 0.0
2017-Sep-13 02:59N 40°24' W 073°38'0 0.0
2017-Sep-13 02:12N 40°24' W 073°38'0 0.1
2017-Sep-13 01:51N 40°24' W 073°38'0 0.2
2017-Sep-13 01:30N 40°24' W 073°38'2 4.9
2017-Sep-13 01:00N 40°25' W 073°41'712.0
2017-Sep-13 00:27N 40°27' W 073°49'4 9.5
2017-Sep-13 00:00N 40°29' W 073°54'612.8
2017-Sep-12 23:30N 40°32' W 074°01'612.9
2017-Sep-12 23:01N 40°38' W 074°03'0 0.5
2017-Sep-12 22:30N 40°38' W 074°04'0 0.0
2017-Sep-12 22:00N 40°38' W 074°04'0 0.0
2017-Sep-12 21:30N 40°38' W 074°04'0 0.0
2017-Sep-12 21:00N 40°38' W 074°04'0 0.0
2017-Sep-12 20:30N 40°38' W 074°04'0 0.0
2017-Sep-12 20:00N 40°38' W 074°04'0 0.3
2017-Sep-12 19:30N 40°38' W 074°04'0 0.2
2017-Sep-12 19:00N 40°39' W 074°04'0 0.0
2017-Sep-12 18:30N 40°39' W 074°04'0 0.0
2017-Sep-12 18:00N 40°39' W 074°04'0 0.0
2017-Sep-12 17:30N 40°39' W 074°04'0 0.0
2017-Sep-12 17:00N 40°39' W 074°04'0 0.0
2017-Sep-12 16:30N 40°39' W 074°04'0 0.0
2017-Sep-12 16:00N 40°39' W 074°04'0 0.1
2017-Sep-12 15:30N 40°39' W 074°04'0 0.1
2017-Sep-12 15:00N 40°39' W 074°04'1 2.8
2017-Sep-12 14:31N 40°37' W 074°03'510.4
2017-Sep-12 14:00N 40°32' W 074°01'713.0
2017-Sep-12 13:30N 40°29' W 073°54'510.1
2017-Sep-12 13:00N 40°27' W 073°48'611.4
2017-Sep-12 12:30N 40°27' W 073°40'8013.5
2017-Sep-12 06:32N 40°30' W 071°55'  
Track history (hours):
 
Tides and Currents Weather Stations Pressure Air Temp Water Temp Dewpoint Dewpoint Depression Visibility Wind Speed Wind Dir Waves Ship Positions

Sti Hammersmith

Last reported at 2017-Sep-18 23:22 UTC. Time now 2017-Sep-24 10:17 UTC.
Position N 40°22' W 073°03'.

Length 184 m; draft 9 m.

Type: Tanker. MMSI: 538005410.

Date/timePositionNaut miles runAvg speedWind from/ knotsBaromVisibWave heightAir tempDewpointWater temp
2017-Sep-18 23:22N 40°22' W 073°03'411.1
2017-Sep-18 23:00N 40°23' W 073°08'611.1
2017-Sep-18 22:30N 40°23' W 073°15'510.9
2017-Sep-18 22:00N 40°23' W 073°23'1010.9
2017-Sep-18 21:03N 40°24' W 073°36'1 7.6
2017-Sep-18 20:55N 40°24' W 073°37'0 0.0
2017-Sep-17 11:15N 40°24' W 073°38'0 0.0
2017-Sep-17 09:02N 40°24' W 073°38'0 0.0
2017-Sep-17 07:35N 40°24' W 073°38'0 0.0
2017-Sep-17 07:30N 40°24' W 073°38'0 0.0
2017-Sep-17 07:00N 40°24' W 073°38'0 0.0
2017-Sep-17 06:27N 40°24' W 073°38'0 0.0
2017-Sep-17 04:45N 40°24' W 073°38'0 0.1
2017-Sep-17 04:29N 40°24' W 073°38'0 0.1
2017-Sep-17 04:00N 40°24' W 073°38'0 0.1
2017-Sep-17 03:30N 40°24' W 073°37'0 0.1
2017-Sep-17 02:53N 40°24' W 073°37'0 0.0
2017-Sep-17 02:30N 40°24' W 073°37'0 0.0
2017-Sep-17 01:59N 40°24' W 073°37'0 0.0
2017-Sep-17 01:29N 40°24' W 073°37'0 0.0
2017-Sep-16 09:57N 40°24' W 073°37'5 8.9
2017-Sep-16 09:26N 40°25' W 073°43'711.0
2017-Sep-16 08:49N 40°28' W 073°51'413.0
2017-Sep-16 08:30N 40°30' W 073°56'611.1
2017-Sep-16 08:00N 40°33' W 074°02'510.5
2017-Sep-16 07:30N 40°38' W 074°03'0 0.8
2017-Sep-16 07:00N 40°39' W 074°03'0 0.0
2017-Sep-16 06:30N 40°39' W 074°03'0 0.1
2017-Sep-16 06:00N 40°39' W 074°03'0 0.2
2017-Sep-16 05:30N 40°39' W 074°03'0 0.2
2017-Sep-16 05:00N 40°39' W 074°03'0 0.0
2017-Sep-16 04:30N 40°39' W 074°03'0 0.0
2017-Sep-16 04:00N 40°39' W 074°03'0 0.0
2017-Sep-16 03:30N 40°39' W 074°03'0 0.0
2017-Sep-16 03:00N 40°39' W 074°03'0 0.0
2017-Sep-16 02:30N 40°39' W 074°03'0 0.1
2017-Sep-16 02:00N 40°39' W 074°03'1 1.8
2017-Sep-16 01:30N 40°39' W 074°04'4 7.3
2017-Sep-16 01:00N 40°38' W 074°09'3 5.8
2017-Sep-16 00:30N 40°37' W 074°12'1 0.0
2017-Sep-14 08:48N 40°36' W 074°12'0 0.3
2017-Sep-14 08:30N 40°36' W 074°12'2 3.2
2017-Sep-14 08:00N 40°34' W 074°13'1 2.9
2017-Sep-14 07:30N 40°33' W 074°14'1 2.3
2017-Sep-14 06:58N 40°34' W 074°13'2 4.4
2017-Sep-14 06:28N 40°36' W 074°12'2 3.9
2017-Sep-14 06:00N 40°38' W 074°12'2 4.7
2017-Sep-14 05:31N 40°39' W 074°09'4 7.1
2017-Sep-14 05:00N 40°39' W 074°05'2 3.1
2017-Sep-14 04:31N 40°38' W 074°03'0 0.0
2017-Sep-14 03:58N 40°38' W 074°03'0 0.2
2017-Sep-14 03:28N 40°38' W 074°03'0 0.3
2017-Sep-14 02:58N 40°38' W 074°03'0 0.1
2017-Sep-14 02:28N 40°38' W 074°03'0 0.0
2017-Sep-14 01:58N 40°38' W 074°03'0 0.0
2017-Sep-14 01:28N 40°38' W 074°03'0 0.0
2017-Sep-14 00:58N 40°38' W 074°03'0 0.0
2017-Sep-14 00:28N 40°38' W 074°03'0 0.0
2017-Sep-13 23:58N 40°38' W 074°03'0 0.0
2017-Sep-13 23:28N 40°38' W 074°03'0 0.0
2017-Sep-13 22:58N 40°38' W 074°03'0 0.0
2017-Sep-13 22:28N 40°38' W 074°03'0 0.0
2017-Sep-13 21:58N 40°38' W 074°03'0 0.0
2017-Sep-13 21:28N 40°38' W 074°03'0 0.3
2017-Sep-13 20:58N 40°38' W 074°03'0 0.3
2017-Sep-13 20:28N 40°38' W 074°03'0 0.0
2017-Sep-13 19:58N 40°38' W 074°03'0 0.0
2017-Sep-13 19:28N 40°38' W 074°03'0 0.0
2017-Sep-13 18:58N 40°38' W 074°03'0 0.1
2017-Sep-13 18:28N 40°38' W 074°03'0 0.0
2017-Sep-13 17:58N 40°38' W 074°03'0 0.1
2017-Sep-13 17:29N 40°38' W 074°03'1 1.9
2017-Sep-13 17:01N 40°37' W 074°03'4 8.7
2017-Sep-13 16:30N 40°33' W 074°02'612.6
2017-Sep-13 16:00N 40°29' W 073°55'611.3
2017-Sep-13 15:30N 40°27' W 073°49'5 9.4
2017-Sep-13 15:00N 40°27' W 073°42'4 7.2
2017-Sep-13 14:30N 40°26' W 073°38'2 3.6
2017-Sep-13 13:57N 40°24' W 073°38'0 0.1
2017-Sep-13 13:29N 40°24' W 073°38'0 0.0
2017-Sep-13 13:00N 40°24' W 073°38'0 0.1
2017-Sep-13 12:30N 40°24' W 073°38'0 0.1
2017-Sep-13 11:56N 40°24' W 073°38'0 0.1
2017-Sep-13 11:30N 40°24' W 073°38'0 0.0
2017-Sep-13 11:00N 40°24' W 073°38'0 0.0
2017-Sep-13 10:30N 40°24' W 073°38'0 0.0
2017-Sep-13 10:00N 40°24' W 073°38'0 0.0
2017-Sep-13 09:27N 40°24' W 073°38'0 0.0
2017-Sep-13 09:00N 40°24' W 073°38'0 0.0
2017-Sep-13 08:30N 40°24' W 073°38'0 0.0
2017-Sep-13 08:00N 40°24' W 073°38'0 0.0
2017-Sep-13 07:30N 40°24' W 073°38'0 0.0
2017-Sep-13 06:59N 40°24' W 073°38'0 0.0
2017-Sep-13 06:30N 40°24' W 073°38'0 0.0
2017-Sep-13 05:57N 40°24' W 073°38'0 0.0
2017-Sep-13 05:29N 40°24' W 073°38'0 0.0
2017-Sep-13 04:51N 40°24' W 073°38'0 0.1
2017-Sep-13 04:29N 40°24' W 073°38'0 0.0
2017-Sep-13 03:59N 40°24' W 073°38'0 0.0
2017-Sep-13 03:26N 40°24' W 073°38'0 0.0
2017-Sep-13 02:59N 40°24' W 073°38'0 0.0
2017-Sep-13 02:12N 40°24' W 073°38'0 0.1
2017-Sep-13 01:51N 40°24' W 073°38'0 0.2
2017-Sep-13 01:30N 40°24' W 073°38'2 4.9
2017-Sep-13 01:00N 40°25' W 073°41'712.0
2017-Sep-13 00:27N 40°27' W 073°49'4 9.5
2017-Sep-13 00:00N 40°29' W 073°54'612.8
2017-Sep-12 23:30N 40°32' W 074°01'612.9
2017-Sep-12 23:01N 40°38' W 074°03'0 0.5
2017-Sep-12 22:30N 40°38' W 074°04'0 0.0
2017-Sep-12 22:00N 40°38' W 074°04'0 0.0
2017-Sep-12 21:30N 40°38' W 074°04'0 0.0
2017-Sep-12 21:00N 40°38' W 074°04'0 0.0
2017-Sep-12 20:30N 40°38' W 074°04'0 0.0
2017-Sep-12 20:00N 40°38' W 074°04'0 0.3
2017-Sep-12 19:30N 40°38' W 074°04'0 0.2
2017-Sep-12 19:00N 40°39' W 074°04'0 0.0
2017-Sep-12 18:30N 40°39' W 074°04'0 0.0
2017-Sep-12 18:00N 40°39' W 074°04'0 0.0
2017-Sep-12 17:30N 40°39' W 074°04'0 0.0
2017-Sep-12 17:00N 40°39' W 074°04'0 0.0
2017-Sep-12 16:30N 40°39' W 074°04'0 0.0
2017-Sep-12 16:00N 40°39' W 074°04'0 0.1
2017-Sep-12 15:30N 40°39' W 074°04'0 0.1
2017-Sep-12 15:00N 40°39' W 074°04'1 2.8
2017-Sep-12 14:31N 40°37' W 074°03'510.4
2017-Sep-12 14:00N 40°32' W 074°01'713.0
2017-Sep-12 13:30N 40°29' W 073°54'510.1
2017-Sep-12 13:00N 40°27' W 073°48'611.4
2017-Sep-12 12:30N 40°27' W 073°40'8013.5
2017-Sep-12 06:32N 40°30' W 071°55'  

Dump ship's entire track history